Time;durP1;ratioP1;P1;durP2;ratioP2;P2;SDS_P1;SDS_P2;PMS_P1;PMS_P2;Temp;Humidity;BMP_temperature;BMP_pressure;BME280_temperature;BME280_humidity;BME280_pressure;Samples;Min_cycle;Max_cycle;Signal;HPM_P1;HPM_P2
2022/09/06 00:00:15;;;;;;;1.60;0.60;;;22.20;63.00;;;;;;5056104;28;20068;-79
2022/09/06 00:02:43;;;;;;;1.88;0.50;;;22.30;63.10;;;;;;5044821;28;20055;-79
2022/09/06 00:05:11;;;;;;;2.50;0.70;;;22.20;63.00;;;;;;5037809;28;20060;-79
2022/09/06 00:07:38;;;;;;;1.33;0.43;;;22.20;62.90;;;;;;5052201;28;20063;-81
2022/09/06 00:10:06;;;;;;;1.00;0.50;;;22.30;63.00;;;;;;5052000;28;20116;-81
2022/09/06 00:12:34;;;;;;;1.52;0.70;;;22.30;63.00;;;;;;5075143;28;20454;-81
2022/09/06 00:15:01;;;;;;;1.27;0.65;;;22.30;63.20;;;;;;5064084;28;20047;-81
2022/09/06 00:17:28;;;;;;;1.65;0.52;;;22.20;63.10;;;;;;5057391;28;20068;-81
2022/09/06 00:19:55;;;;;;;1.23;0.60;;;22.20;63.10;;;;;;5045272;28;20437;-81
2022/09/06 00:22:22;;;;;;;0.70;0.40;;;22.20;63.10;;;;;;5055498;28;20047;-81
2022/09/06 00:24:49;;;;;;;1.38;0.40;;;22.20;63.10;;;;;;5060217;28;20044;-81
2022/09/06 00:27:16;;;;;;;0.80;0.32;;;22.20;63.10;;;;;;5060506;28;20040;-81
2022/09/06 00:29:43;;;;;;;0.88;0.43;;;22.20;63.10;;;;;;5040147;28;20044;-81
2022/09/06 00:32:10;;;;;;;2.05;0.45;;;22.30;63.10;;;;;;5070284;28;20116;-81
2022/09/06 00:34:37;;;;;;;1.15;0.50;;;22.30;63.10;;;;;;5027348;28;20095;-81
2022/09/06 00:37:04;;;;;;;0.55;0.30;;;22.30;63.10;;;;;;5033526;28;20123;-81
2022/09/06 00:39:31;;;;;;;0.68;0.30;;;22.30;63.10;;;;;;5051089;28;20155;-81
2022/09/06 00:41:58;;;;;;;0.95;0.32;;;22.30;63.10;;;;;;5055343;28;20041;-81
2022/09/06 00:44:25;;;;;;;1.25;0.50;;;22.30;63.10;;;;;;5043194;28;20451;-81
2022/09/06 00:46:54;;;;;;;1.67;0.30;;;22.30;63.20;;;;;;5053128;28;20078;-81
2022/09/06 00:49:26;;;;;;;1.63;0.50;;;22.30;63.20;;;;;;5063160;28;20078;-81
2022/09/06 00:52:00;;;;;;;2.42;0.60;;;22.30;63.30;;;;;;5065350;28;20123;-81
2022/09/06 00:54:27;;;;;;;0.90;0.50;;;22.30;63.30;;;;;;5056827;28;20565;-81
2022/09/06 00:56:56;;;;;;;2.50;0.60;;;22.20;63.40;;;;;;5059958;28;20068;-81
2022/09/06 00:59:29;;;;;;;1.08;0.45;;;22.20;63.50;;;;;;5032732;28;20076;-81
2022/09/06 01:01:57;;;;;;;0.75;0.43;;;22.20;64.40;;;;;;5059680;28;20048;-81
2022/09/06 01:04:26;;;;;;;1.45;0.35;;;22.10;63.90;;;;;;5040715;28;20152;-81
2022/09/06 01:07:34;;;;;;;0.60;0.40;;;22.00;64.40;;;;;;5056240;28;20036;-82
2022/09/06 01:10:26;;;;;;;1.85;0.60;;;21.80;64.90;;;;;;5045919;28;20162;-81
2022/09/06 01:13:17;;;;;;;0.80;0.50;;;21.70;65.40;;;;;;5076078;28;20551;-81
2022/09/06 01:16:02;;;;;;;0.80;0.50;;;21.60;65.70;;;;;;5046823;28;20068;-82
2022/09/06 01:18:44;;;;;;;0.93;0.40;;;21.60;66.10;;;;;;5066273;28;20048;-81
2022/09/06 01:21:19;;;;;;;1.23;0.50;;;21.50;66.40;;;;;;5074929;28;20044;-79
2022/09/06 01:24:17;;;;;;;1.58;0.47;;;21.40;67.30;;;;;;5059096;28;20062;-79
2022/09/06 01:27:06;;;;;;;1.67;0.60;;;21.20;68.00;;;;;;5040866;28;20071;-79
2022/09/06 01:29:45;;;;;;;1.88;0.57;;;20.90;68.60;;;;;;5074728;28;20037;-80
2022/09/06 01:32:21;;;;;;;2.65;0.60;;;20.80;69.20;;;;;;5082193;28;20459;-80
2022/09/06 01:35:04;;;;;;;1.30;0.63;;;20.70;69.80;;;;;;5055927;28;20045;-83
2022/09/06 01:37:32;;;;;;;2.92;0.90;;;20.60;70.20;;;;;;5050320;28;20094;-83
2022/09/06 01:39:59;;;;;;;1.80;0.60;;;20.50;71.00;;;;;;5057839;28;20385;-83
2022/09/06 01:42:29;;;;;;;2.08;0.70;;;20.30;71.60;;;;;;5040759;28;20151;-83
2022/09/06 01:45:00;;;;;;;1.60;0.60;;;20.20;72.60;;;;;;5040769;28;20131;-84
2022/09/06 01:47:34;;;;;;;1.20;0.63;;;20.10;72.80;;;;;;5079915;28;20087;-83
2022/09/06 01:50:19;;;;;;;1.40;0.55;;;20.00;73.20;;;;;;5062234;28;20178;-80
2022/09/06 01:52:59;;;;;;;1.23;0.70;;;20.00;73.50;;;;;;5061919;28;20040;-80
2022/09/06 01:55:37;;;;;;;1.58;0.60;;;19.90;73.80;;;;;;5044076;28;20084;-79
2022/09/06 01:58:38;;;;;;;1.65;0.60;;;19.90;73.90;;;;;;5082075;28;20046;-81
2022/09/06 02:01:17;;;;;;;2.60;1.10;;;19.90;74.00;;;;;;5073919;28;20101;-80
2022/09/06 02:03:54;;;;;;;1.92;0.98;;;19.70;75.00;;;;;;5056550;28;20044;-81
2022/09/06 02:06:34;;;;;;;1.40;0.80;;;19.60;75.80;;;;;;5054017;28;20102;-81
2022/09/06 02:09:20;;;;;;;2.03;0.70;;;19.50;75.90;;;;;;5060626;28;20084;-80
2022/09/06 02:11:55;;;;;;;2.78;0.85;;;19.60;76.10;;;;;;5050504;28;20109;-80
2022/09/06 02:14:37;;;;;;;1.25;0.70;;;19.60;75.90;;;;;;5042618;28;20049;-80
2022/09/06 02:17:08;;;;;;;1.45;0.70;;;19.50;76.10;;;;;;5073397;28;20044;-80
2022/09/06 02:19:43;;;;;;;3.15;0.98;;;19.50;76.10;;;;;;5055839;28;20138;-79
2022/09/06 02:22:14;;;;;;;1.33;0.88;;;19.60;76.40;;;;;;5074949;28;20442;-80
2022/09/06 02:24:45;;;;;;;1.08;0.60;;;19.60;76.40;;;;;;5039314;28;20040;-80
2022/09/06 02:27:13;;;;;;;1.98;0.90;;;19.70;76.60;;;;;;5054652;28;20053;-80
2022/09/06 02:29:40;;;;;;;2.17;0.90;;;19.70;76.70;;;;;;5048602;28;20554;-80
2022/09/06 02:32:25;;;;;;;1.90;0.95;;;19.70;76.80;;;;;;5021655;28;20041;-80
2022/09/06 02:34:55;;;;;;;2.00;1.00;;;19.80;77.00;;;;;;5067574;28;20047;-80
2022/09/06 02:37:24;;;;;;;2.35;0.85;;;19.70;77.00;;;;;;5044131;28;20044;-80
2022/09/06 02:39:54;;;;;;;2.30;0.80;;;19.70;77.20;;;;;;5056120;28;20166;-80
2022/09/06 02:42:23;;;;;;;2.70;0.90;;;19.80;77.30;;;;;;5059358;28;20131;-80
2022/09/06 02:44:50;;;;;;;2.95;1.05;;;19.80;77.40;;;;;;5048458;28;20074;-80
2022/09/06 02:47:17;;;;;;;1.40;0.77;;;19.80;77.50;;;;;;5045635;28;20504;-80
2022/09/06 02:49:44;;;;;;;2.00;1.10;;;19.80;77.60;;;;;;5039452;28;20048;-80
2022/09/06 02:52:11;;;;;;;1.75;0.82;;;19.80;78.30;;;;;;5048894;28;20131;-80
2022/09/06 02:54:38;;;;;;;2.92;1.10;;;19.80;77.80;;;;;;5036797;28;20457;-80
2022/09/06 02:57:05;;;;;;;1.77;0.70;;;19.80;77.90;;;;;;5024722;28;20101;-80
2022/09/06 02:59:32;;;;;;;1.95;1.10;;;19.80;78.00;;;;;;5035119;28;20064;-80
2022/09/06 03:01:59;;;;;;;2.72;1.10;;;19.80;78.10;;;;;;5048789;28;20036;-80
2022/09/06 03:04:26;;;;;;;2.17;1.30;;;19.70;78.20;;;;;;5042890;28;20114;-80
2022/09/06 03:06:53;;;;;;;2.17;1.17;;;19.70;78.30;;;;;;5021321;28;20067;-80
2022/09/06 03:09:20;;;;;;;2.95;1.48;;;19.70;78.40;;;;;;5056252;28;20074;-80
2022/09/06 03:11:47;;;;;;;2.75;1.33;;;19.70;78.80;;;;;;5024496;28;20086;-80
2022/09/06 03:14:18;;;;;;;3.67;1.33;;;19.80;78.60;;;;;;5051219;28;20403;-80
2022/09/06 03:16:45;;;;;;;3.80;1.50;;;19.70;78.60;;;;;;5037819;28;20453;-80
2022/09/06 03:19:12;;;;;;;1.92;1.08;;;19.70;78.60;;;;;;5026605;28;20064;-80
2022/09/06 03:21:39;;;;;;;1.92;0.95;;;19.70;78.70;;;;;;5042159;28;20036;-80
2022/09/06 03:24:06;;;;;;;2.08;1.08;;;19.60;78.60;;;;;;5057131;28;20064;-80
2022/09/06 03:26:33;;;;;;;2.05;1.00;;;19.70;78.70;;;;;;5037031;28;20044;-79
2022/09/06 03:29:00;;;;;;;2.05;1.17;;;19.70;79.00;;;;;;5020935;28;20075;-79
2022/09/06 03:31:27;;;;;;;2.90;1.58;;;19.60;79.50;;;;;;5032906;28;20090;-79
2022/09/06 03:33:54;;;;;;;4.03;1.17;;;19.60;79.40;;;;;;5050410;28;20135;-80
2022/09/06 03:36:21;;;;;;;1.88;1.00;;;19.60;79.40;;;;;;5014867;28;20052;-80
2022/09/06 03:38:49;;;;;;;2.42;1.20;;;19.60;79.30;;;;;;5037265;28;20037;-80
2022/09/06 03:41:16;;;;;;;1.98;0.90;;;19.70;79.40;;;;;;5043326;28;20492;-80
2022/09/06 03:43:43;;;;;;;1.40;0.80;;;19.70;79.30;;;;;;5014368;28;20075;-80
2022/09/06 03:46:10;;;;;;;2.38;1.15;;;19.70;79.30;;;;;;5038869;28;20051;-80
2022/09/06 03:48:37;;;;;;;1.75;0.90;;;19.70;79.20;;;;;;5043108;28;20122;-80
2022/09/06 03:51:05;;;;;;;1.65;0.93;;;19.80;79.30;;;;;;5042777;28;20040;-80
2022/09/06 03:53:32;;;;;;;1.55;0.70;;;19.80;79.30;;;;;;5052712;28;20052;-80
2022/09/06 03:55:58;;;;;;;1.85;1.00;;;19.80;79.30;;;;;;5064158;28;20453;-80
2022/09/06 03:58:30;;;;;;;1.55;0.90;;;19.80;79.40;;;;;;5057441;28;20044;-80
2022/09/06 04:01:06;;;;;;;1.70;0.70;;;19.80;80.10;;;;;;5057756;28;20037;-80
2022/09/06 04:03:34;;;;;;;1.50;0.90;;;19.80;79.50;;;;;;5059987;28;20052;-80
2022/09/06 04:06:02;;;;;;;2.90;0.90;;;19.80;79.60;;;;;;5049266;28;20089;-80
2022/09/06 04:08:29;;;;;;;1.63;0.75;;;19.80;79.70;;;;;;5055046;28;20415;-80
2022/09/06 04:10:58;;;;;;;2.40;0.90;;;19.80;79.90;;;;;;5031010;28;20051;-80
2022/09/06 04:13:26;;;;;;;1.65;0.82;;;19.80;80.00;;;;;;5073727;28;20047;-80
2022/09/06 04:15:54;;;;;;;1.75;0.82;;;19.80;80.00;;;;;;5055092;28;20071;-80
2022/09/06 04:18:22;;;;;;;1.55;0.88;;;19.80;80.00;;;;;;5047543;28;20076;-80
2022/09/06 04:20:51;;;;;;;2.08;0.90;;;19.80;80.00;;;;;;5040772;28;20378;-80
2022/09/06 04:23:18;;;;;;;2.17;0.82;;;19.80;80.10;;;;;;5046733;28;20074;-80
2022/09/06 04:25:47;;;;;;;2.50;1.08;;;19.80;80.20;;;;;;5044054;28;20044;-80
2022/09/06 04:28:17;;;;;;;2.30;0.77;;;19.80;80.20;;;;;;5044572;28;20133;-80
2022/09/06 04:30:55;;;;;;;2.85;0.90;;;19.80;80.20;;;;;;5058400;28;20060;-80
2022/09/06 04:33:29;;;;;;;2.20;1.10;;;19.90;80.20;;;;;;5072741;28;20485;-80
2022/09/06 04:35:58;;;;;;;2.00;0.95;;;19.80;80.20;;;;;;5058148;28;20075;-80
2022/09/06 04:38:27;;;;;;;1.98;1.00;;;19.80;80.20;;;;;;5058156;28;20503;-80
2022/09/06 04:40:55;;;;;;;2.55;1.10;;;19.80;80.30;;;;;;5067486;28;20067;-80
2022/09/06 04:43:23;;;;;;;1.63;1.10;;;19.80;80.40;;;;;;5030315;28;20053;-80
2022/09/06 04:45:50;;;;;;;1.75;1.10;;;19.80;80.40;;;;;;5069848;28;20036;-80
2022/09/06 04:48:17;;;;;;;2.15;1.00;;;19.80;80.40;;;;;;5084557;28;20381;-80
2022/09/06 04:50:44;;;;;;;2.20;1.15;;;19.80;80.50;;;;;;5044299;28;20075;-80
2022/09/06 04:53:11;;;;;;;2.83;1.00;;;19.80;80.50;;;;;;5051589;28;20446;-79
2022/09/06 04:55:38;;;;;;;2.90;1.63;;;19.80;80.80;;;;;;5060759;28;20451;-80
2022/09/06 04:58:05;;;;;;;1.67;0.98;;;19.80;80.60;;;;;;5066069;28;20377;-80
2022/09/06 05:00:34;;;;;;;2.08;1.05;;;19.80;80.70;;;;;;5058218;28;20496;-80
2022/09/06 05:03:01;;;;;;;2.20;1.17;;;19.80;80.70;;;;;;5057405;28;20507;-80
2022/09/06 05:05:28;;;;;;;2.10;1.08;;;19.80;80.80;;;;;;5046232;28;20045;-80
2022/09/06 05:07:56;;;;;;;2.17;1.33;;;19.80;80.90;;;;;;5056532;28;20520;-81
2022/09/06 05:10:23;;;;;;;2.05;1.08;;;19.80;80.90;;;;;;5041098;28;20143;-81
2022/09/06 05:12:52;;;;;;;1.90;0.90;;;19.80;80.90;;;;;;5075227;28;20097;-78
2022/09/06 05:15:21;;;;;;;2.08;1.00;;;19.80;81.00;;;;;;5063799;28;20110;-78
2022/09/06 05:17:48;;;;;;;1.85;1.02;;;19.80;80.90;;;;;;5043639;28;20455;-78
2022/09/06 05:20:15;;;;;;;1.85;0.93;;;19.80;80.90;;;;;;5033151;28;20052;-77
2022/09/06 05:22:50;;;;;;;2.10;1.00;;;19.70;80.90;;;;;;5056365;28;20047;-77
2022/09/06 05:25:19;;;;;;;1.73;0.90;;;19.70;80.90;;;;;;5044324;28;20041;-81
2022/09/06 05:27:46;;;;;;;2.35;0.93;;;19.70;80.90;;;;;;5024390;28;20102;-81
2022/09/06 05:30:14;;;;;;;1.40;0.70;;;19.80;81.00;;;;;;5044900;28;20072;-82
2022/09/06 05:32:41;;;;;;;2.38;1.13;;;19.70;80.90;;;;;;5051425;28;20110;-81
2022/09/06 05:35:08;;;;;;;1.80;0.90;;;19.70;80.90;;;;;;5042624;28;20044;-81
2022/09/06 05:37:35;;;;;;;1.77;0.93;;;19.80;81.00;;;;;;5041228;28;20044;-82
2022/09/06 05:40:02;;;;;;;2.10;1.15;;;19.80;81.00;;;;;;5036747;28;20126;-82
2022/09/06 05:42:29;;;;;;;2.15;0.90;;;19.70;81.10;;;;;;5065804;28;20094;-82
2022/09/06 05:44:56;;;;;;;2.15;1.10;;;19.70;81.20;;;;;;5026227;28;20074;-82
2022/09/06 05:47:23;;;;;;;2.15;1.27;;;19.70;81.20;;;;;;5051900;28;20053;-82
2022/09/06 05:49:51;;;;;;;2.72;1.13;;;19.70;81.20;;;;;;5011700;28;20049;-82
2022/09/06 05:52:18;;;;;;;2.55;1.20;;;19.70;81.10;;;;;;5047303;28;20097;-82
2022/09/06 05:54:45;;;;;;;2.97;1.02;;;19.80;81.20;;;;;;5058025;28;20037;-82
2022/09/06 05:57:12;;;;;;;1.80;0.90;;;19.80;81.10;;;;;;5061059;28;20034;-82
2022/09/06 05:59:39;;;;;;;2.60;1.42;;;19.90;81.10;;;;;;5042509;28;20039;-82
2022/09/06 06:02:07;;;;;;;2.85;1.45;;;19.90;81.00;;;;;;5021912;28;20040;-82
2022/09/06 06:04:34;;;;;;;4.53;1.75;;;19.90;81.00;;;;;;5048410;28;20066;-82
2022/09/06 06:07:01;;;;;;;3.65;1.58;;;20.00;81.00;;;;;;5043976;28;20048;-82
2022/09/06 06:09:28;;;;;;;2.75;1.15;;;20.00;80.90;;;;;;5036228;28;20055;-82
2022/09/06 06:11:55;;;;;;;3.55;1.38;;;20.00;80.80;;;;;;5038525;28;20080;-82
2022/09/06 06:14:22;;;;;;;2.58;1.50;;;20.00;80.70;;;;;;5038182;28;20036;-81
2022/09/06 06:16:49;;;;;;;2.25;1.25;;;20.00;80.70;;;;;;5038003;28;20080;-81
2022/09/06 06:19:16;;;;;;;3.28;1.30;;;20.00;80.60;;;;;;5020432;28;20102;-81
2022/09/06 06:21:43;;;;;;;2.92;1.42;;;20.10;80.50;;;;;;5053940;28;20052;-81
2022/09/06 06:24:10;;;;;;;3.55;1.60;;;20.10;80.30;;;;;;5046056;28;20469;-81
2022/09/06 06:26:37;;;;;;;4.15;1.35;;;20.20;80.30;;;;;;5054260;28;20497;-81
2022/09/06 06:29:06;;;;;;;2.53;1.38;;;20.20;80.40;;;;;;5060718;28;20044;-81
2022/09/06 06:31:35;;;;;;;3.30;1.90;;;20.20;80.40;;;;;;5064137;28;20125;-81
2022/09/06 06:34:03;;;;;;;3.88;2.17;;;20.20;80.30;;;;;;5067904;28;20048;-81
2022/09/06 06:36:32;;;;;;;3.85;2.10;;;20.20;80.30;;;;;;5058527;28;20036;-81
2022/09/06 06:39:01;;;;;;;3.22;1.70;;;20.20;80.30;;;;;;5031050;28;20048;-81
2022/09/06 06:41:30;;;;;;;3.40;1.83;;;20.20;80.20;;;;;;5068197;28;20048;-81
2022/09/06 06:43:59;;;;;;;3.25;1.88;;;20.30;80.20;;;;;;5073647;28;20051;-81
2022/09/06 06:46:28;;;;;;;3.65;2.28;;;20.30;80.20;;;;;;5045694;28;20102;-81
2022/09/06 06:48:56;;;;;;;4.63;2.22;;;20.30;80.10;;;;;;5067463;28;20044;-81
2022/09/06 06:51:25;;;;;;;4.13;2.90;;;20.30;80.10;;;;;;5052209;28;20106;-81
2022/09/06 06:53:52;;;;;;;3.47;2.05;;;20.30;80.10;;;;;;5049723;28;20101;-81
2022/09/06 06:56:24;;;;;;;3.83;2.20;;;20.30;80.00;;;;;;5047679;28;20044;-81
2022/09/06 06:58:54;;;;;;;2.90;1.52;;;20.30;80.00;;;;;;5053552;28;20045;-81
2022/09/06 07:01:21;;;;;;;3.10;1.80;;;20.40;79.90;;;;;;5050781;28;20089;-81
2022/09/06 07:03:49;;;;;;;2.60;1.63;;;20.50;79.80;;;;;;5051250;28;20426;-81
2022/09/06 07:06:16;;;;;;;3.22;1.77;;;20.50;79.60;;;;;;5055579;28;20097;-81
2022/09/06 07:08:44;;;;;;;3.17;1.60;;;20.60;79.50;;;;;;5047931;28;20052;-81
2022/09/06 07:11:12;;;;;;;2.83;1.75;;;20.70;79.50;;;;;;5051157;28;20051;-81
2022/09/06 07:13:40;;;;;;;2.88;1.88;;;20.70;79.30;;;;;;5061408;28;20504;-81
2022/09/06 07:16:12;;;;;;;2.60;1.63;;;20.80;79.20;;;;;;5042910;28;20108;-80
2022/09/06 07:18:41;;;;;;;2.63;1.65;;;20.90;79.10;;;;;;5057584;28;20106;-81
2022/09/06 07:21:13;;;;;;;2.35;1.52;;;20.90;78.90;;;;;;5034865;28;20041;-82
2022/09/06 07:24:00;;;;;;;3.40;1.58;;;21.00;78.70;;;;;;5040345;28;20028;-81
2022/09/06 07:26:30;;;;;;;2.28;1.35;;;21.00;78.60;;;;;;5044860;28;20132;-81
2022/09/06 07:29:01;;;;;;;3.63;1.48;;;21.00;78.50;;;;;;5029569;28;20461;-81
2022/09/06 07:31:28;;;;;;;3.20;1.65;;;21.10;78.30;;;;;;5053621;28;20052;-81
2022/09/06 07:34:16;;;;;;;2.85;1.77;;;21.10;78.10;;;;;;5059071;28;20514;-81
2022/09/06 07:36:43;;;;;;;3.15;1.27;;;21.20;77.90;;;;;;5051209;28;20052;-82
2022/09/06 07:39:10;;;;;;;2.92;1.50;;;21.30;77.90;;;;;;5049983;28;20068;-82
2022/09/06 07:41:37;;;;;;;2.33;1.35;;;21.30;77.60;;;;;;5018893;28;20098;-81
2022/09/06 07:44:04;;;;;;;2.20;1.00;;;21.40;77.60;;;;;;5043423;28;20044;-81
2022/09/06 07:46:31;;;;;;;1.80;1.13;;;21.50;77.50;;;;;;5030329;28;20423;-81
2022/09/06 07:48:58;;;;;;;3.40;1.85;;;21.50;77.30;;;;;;5017696;28;20044;-81
2022/09/06 07:51:25;;;;;;;4.10;1.40;;;21.60;77.20;;;;;;5045636;28;20040;-81
2022/09/06 07:53:57;;;;;;;2.22;1.08;;;21.70;77.10;;;;;;5020720;28;20531;-79
2022/09/06 07:56:43;;;;;;;1.95;0.90;;;21.70;76.90;;;;;;5058558;28;20537;-77
2022/09/06 07:59:10;;;;;;;2.13;1.17;;;21.80;76.80;;;;;;5058573;28;20048;-76
2022/09/06 08:01:38;;;;;;;2.35;1.25;;;21.80;76.60;;;;;;5048021;28;20601;-76
2022/09/06 08:04:08;;;;;;;2.55;1.30;;;21.90;76.40;;;;;;5074300;28;20134;-77
2022/09/06 08:06:37;;;;;;;2.83;1.25;;;22.00;76.90;;;;;;5077312;28;20366;-77
2022/09/06 08:09:24;;;;;;;2.25;1.10;;;22.10;76.10;;;;;;5045322;28;20489;-76
2022/09/06 08:11:51;;;;;;;2.13;1.20;;;22.10;75.80;;;;;;5034779;28;20078;-77
2022/09/06 08:14:19;;;;;;;1.83;0.93;;;22.20;75.70;;;;;;5036103;28;20455;-77
2022/09/06 08:16:46;;;;;;;2.20;1.40;;;22.30;75.50;;;;;;5031334;28;20472;-77
2022/09/06 08:19:17;;;;;;;2.05;0.88;;;22.40;75.30;;;;;;5040620;28;20129;-77
2022/09/06 08:21:44;;;;;;;1.60;1.08;;;22.50;75.20;;;;;;5007275;28;20089;-76
2022/09/06 08:24:11;;;;;;;2.53;1.40;;;22.50;74.80;;;;;;5051048;28;20037;-77
2022/09/06 08:26:39;;;;;;;2.35;1.30;;;22.60;74.70;;;;;;5051719;28;20059;-76
2022/09/06 08:29:07;;;;;;;1.83;1.05;;;22.60;74.40;;;;;;5055456;28;20048;-76
2022/09/06 08:31:37;;;;;;;2.63;1.15;;;22.70;74.30;;;;;;5056137;28;20135;-77
2022/09/06 08:34:05;;;;;;;2.60;1.20;;;22.80;74.30;;;;;;5064787;28;20326;-79
2022/09/06 08:36:33;;;;;;;1.92;1.08;;;22.90;74.10;;;;;;5088506;28;20064;-79
2022/09/06 08:39:03;;;;;;;2.40;1.42;;;22.90;73.80;;;;;;5065479;28;20051;-79
2022/09/06 08:41:40;;;;;;;3.05;1.05;;;23.00;73.50;;;;;;5063960;28;20572;-79
2022/09/06 08:44:24;;;;;;;3.60;1.88;;;23.00;73.30;;;;;;5055950;28;20098;-83
2022/09/06 08:47:13;;;;;;;2.75;1.23;;;23.10;73.10;;;;;;5073029;28;20040;-80
2022/09/06 08:49:43;;;;;;;2.88;1.20;;;23.10;73.00;;;;;;5065796;28;20080;-80
2022/09/06 08:52:36;;;;;;;3.35;1.45;;;23.20;72.80;;;;;;5061456;28;20450;-80
2022/09/06 08:55:37;;;;;;;2.63;1.40;;;23.20;72.30;;;;;;5084004;28;20125;-80
2022/09/06 08:58:28;;;;;;;3.30;1.15;;;23.20;72.00;;;;;;5058151;28;20094;-81
2022/09/06 09:01:04;;;;;;;1.60;0.82;;;23.30;71.90;;;;;;5056400;28;20036;-80
2022/09/06 09:03:35;;;;;;;2.75;1.00;;;23.40;71.90;;;;;;5062221;28;20507;-80
2022/09/06 09:06:05;;;;;;;4.60;1.00;;;23.40;71.80;;;;;;5084918;28;20032;-80
2022/09/06 09:08:46;;;;;;;2.75;1.45;;;23.50;71.70;;;;;;5072333;28;20097;-80
2022/09/06 09:11:19;;;;;;;2.08;1.00;;;23.60;71.30;;;;;;5068490;28;20051;-80
2022/09/06 09:14:09;;;;;;;1.85;0.80;;;23.70;71.30;;;;;;5058435;28;20039;-84
2022/09/06 09:16:35;;;;;;;2.13;1.00;;;23.70;71.10;;;;;;5046429;28;20534;-81
2022/09/06 09:19:05;;;;;;;2.63;1.10;;;23.80;70.90;;;;;;5064210;28;20048;-80
2022/09/06 09:21:35;;;;;;;1.63;0.82;;;23.80;70.70;;;;;;5055718;28;20119;-81
2022/09/06 09:24:08;;;;;;;2.13;0.70;;;23.90;70.60;;;;;;5055960;28;20052;-81
2022/09/06 09:27:01;;;;;;;2.47;1.05;;;24.00;70.20;;;;;;5080551;28;20036;-81
2022/09/06 09:29:28;;;;;;;2.40;1.15;;;24.10;69.70;;;;;;5073213;28;20044;-81
2022/09/06 09:32:02;;;;;;;2.25;0.88;;;24.20;69.60;;;;;;5061552;28;20131;-81
2022/09/06 09:34:38;;;;;;;1.17;0.70;;;24.30;69.30;;;;;;5070708;28;20041;-77
2022/09/06 09:37:23;;;;;;;1.80;0.85;;;24.40;69.00;;;;;;5063879;28;20492;-77
2022/09/06 09:40:24;;;;;;;1.42;0.70;;;24.50;68.80;;;;;;5084539;28;20511;-77
2022/09/06 09:42:52;;;;;;;1.40;0.77;;;24.60;68.60;;;;;;5040834;28;20076;-78
2022/09/06 09:45:19;;;;;;;1.95;0.60;;;24.70;68.30;;;;;;5040510;28;20433;-78
2022/09/06 09:47:46;;;;;;;1.30;0.70;;;24.80;68.20;;;;;;5056473;28;20045;-79
2022/09/06 09:50:33;;;;;;;2.33;0.80;;;24.90;68.60;;;;;;5022496;28;20048;-79
2022/09/06 09:53:13;;;;;;;1.45;0.68;;;25.00;67.60;;;;;;5043889;28;20052;-80
2022/09/06 09:55:41;;;;;;;1.25;0.70;;;25.00;67.20;;;;;;5041853;28;20055;-80
2022/09/06 09:58:21;;;;;;;1.83;0.70;;;25.10;67.10;;;;;;5048243;28;20134;-80
2022/09/06 10:01:11;;;;;;;1.70;0.70;;;25.20;66.90;;;;;;5055267;28;20523;-80
2022/09/06 10:03:38;;;;;;;2.13;0.95;;;25.30;66.50;;;;;;5062416;28;20086;-81
2022/09/06 10:06:26;;;;;;;1.83;0.70;;;25.30;66.30;;;;;;5047097;28;20488;-77
2022/09/06 10:09:34;;;;;;;1.20;0.47;;;25.40;66.00;;;;;;5078439;28;20040;-84
2022/09/06 10:12:01;;;;;;;1.48;0.63;;;25.60;65.60;;;;;;5040581;28;20070;-77
2022/09/06 10:14:32;;;;;;;0.80;0.45;;;25.60;65.50;;;;;;5057346;28;20101;-76
2022/09/06 10:16:59;;;;;;;1.42;0.60;;;25.80;64.70;;;;;;5056656;28;20127;-78
2022/09/06 10:19:39;;;;;;;0.75;0.50;;;26.10;64.10;;;;;;5066113;28;20046;-78
2022/09/06 10:22:22;;;;;;;1.15;0.60;;;26.20;63.10;;;;;;5063463;28;20559;-83
2022/09/06 10:25:26;;;;;;;1.42;0.40;;;26.20;63.10;;;;;;5080279;28;20032;-84
2022/09/06 10:28:28;;;;;;;1.00;0.57;;;26.40;62.80;;;;;;5053596;28;20113;-82
2022/09/06 10:30:58;;;;;;;1.50;0.55;;;26.90;61.90;;;;;;5065654;28;20760;-82
2022/09/06 10:33:35;;;;;;;1.17;0.40;;;27.20;60.80;;;;;;5053876;28;20404;-83
2022/09/06 10:36:02;;;;;;;1.88;0.60;;;27.50;60.90;;;;;;5072739;28;20032;-83
2022/09/06 10:38:42;;;;;;;0.70;0.45;;;27.80;59.70;;;;;;5055149;28;20392;-88
2022/09/06 10:41:37;;;;;;;0.90;0.40;;;27.70;59.60;;;;;;5077694;28;20082;-89
2022/09/06 10:44:36;;;;;;;2.58;0.65;;;27.20;60.10;;;;;;5047959;28;20087;-82
2022/09/06 10:47:16;;;;;;;1.15;0.52;;;26.90;60.40;;;;;;4988278;28;20055;-83
2022/09/06 10:49:50;;;;;;;0.65;0.35;;;26.80;61.10;;;;;;5066087;28;20074;-83
2022/09/06 10:52:31;;;;;;;2.78;0.50;;;26.70;61.30;;;;;;5049829;28;20056;-83
2022/09/06 10:55:03;;;;;;;0.95;0.50;;;26.80;61.00;;;;;;5052491;28;20090;-82
2022/09/06 10:57:50;;;;;;;;;;;26.80;60.60;;;;;;5044013;28;20044;-82
2022/09/06 11:00:45;;;;;;;0.63;0.40;;;26.70;61.10;;;;;;5045691;28;20379;-82
2022/09/06 11:03:38;;;;;;;1.52;0.60;;;26.70;60.90;;;;;;5051898;28;20372;-81
2022/09/06 11:06:34;;;;;;;3.40;0.70;;;26.80;60.10;;;;;;5066683;28;20045;-82
2022/09/06 11:09:34;;;;;;;1.73;0.50;;;26.60;60.00;;;;;;5038808;28;20044;-82
2022/09/06 11:12:53;;;;;;;1.25;0.40;;;26.50;60.00;;;;;;5069521;28;20051;-82
2022/09/06 11:15:22;;;;;;;1.58;0.52;;;26.40;60.10;;;;;;5051326;28;20045;-83
2022/09/06 11:18:22;;;;;;;0.88;0.43;;;26.40;60.10;;;;;;5041737;28;20040;-82
2022/09/06 11:21:08;;;;;;;1.30;0.50;;;26.50;60.00;;;;;;5045656;28;20045;-83
2022/09/06 11:23:47;;;;;;;1.48;0.43;;;26.60;59.90;;;;;;5037245;28;20040;-83
2022/09/06 11:26:33;;;;;;;1.90;0.55;;;27.60;58.80;;;;;;5063913;28;20044;-84
2022/09/06 11:29:15;;;;;;;1.80;0.40;;;28.40;57.20;;;;;;5062876;28;20472;-84
2022/09/06 11:31:54;;;;;;;2.08;0.60;;;28.70;56.00;;;;;;5068979;28;20066;-84
2022/09/06 11:34:53;;;;;;;0.95;0.50;;;28.80;55.50;;;;;;5073982;28;20051;-83
2022/09/06 11:37:51;;;;;;;0.90;0.40;;;28.80;55.40;;;;;;5053840;28;20082;-84
2022/09/06 11:40:28;;;;;;;1.33;0.50;;;28.70;55.60;;;;;;5050754;28;20045;-83
2022/09/06 11:42:58;;;;;;;2.17;0.60;;;28.60;56.00;;;;;;5049401;28;20052;-84
2022/09/06 11:45:54;;;;;;;1.95;0.43;;;28.30;56.30;;;;;;5062590;28;20048;-84
2022/09/06 11:48:25;;;;;;;1.00;0.50;;;28.00;56.60;;;;;;5072766;28;20048;-83
2022/09/06 11:50:58;;;;;;;0.60;0.40;;;27.90;56.80;;;;;;5066063;28;20043;-83
2022/09/06 11:53:31;;;;;;;1.33;0.40;;;27.70;56.70;;;;;;5057671;28;20044;-84
2022/09/06 11:56:01;;;;;;;0.82;0.50;;;27.70;56.90;;;;;;5054235;28;20064;-82
2022/09/06 11:58:38;;;;;;;1.33;0.50;;;27.70;57.10;;;;;;5046733;28;20403;-83
2022/09/06 12:01:12;;;;;;;2.15;0.77;;;27.70;56.80;;;;;;5044214;28;20048;-82
2022/09/06 12:03:41;;;;;;;1.67;0.55;;;27.60;56.40;;;;;;5048826;28;20497;-84
2022/09/06 12:07:02;;;;;;;1.20;0.70;;;27.60;56.50;;;;;;5065058;28;20137;-82
2022/09/06 12:09:30;;;;;;;1.35;0.68;;;27.50;56.50;;;;;;5056727;28;20463;-84
2022/09/06 12:11:59;;;;;;;1.10;0.60;;;27.50;56.60;;;;;;5068174;28;20423;-83
2022/09/06 12:14:34;;;;;;;1.48;0.60;;;27.50;56.50;;;;;;5053766;28;20131;-84
2022/09/06 12:17:03;;;;;;;2.70;0.90;;;27.50;56.30;;;;;;5076788;28;20117;-82
2022/09/06 12:20:07;;;;;;;1.65;0.60;;;27.60;55.80;;;;;;5066097;28;20484;-84
2022/09/06 12:22:39;;;;;;;1.85;0.80;;;27.60;55.90;;;;;;5046495;28;20051;-83
2022/09/06 12:25:39;;;;;;;2.20;0.70;;;27.70;55.50;;;;;;5065616;28;20131;-83
2022/09/06 12:28:19;;;;;;;0.95;0.65;;;27.80;55.50;;;;;;5033921;28;20462;-82
2022/09/06 12:30:49;;;;;;;1.55;0.55;;;27.80;55.50;;;;;;5050493;28;20406;-83
2022/09/06 12:33:37;;;;;;;1.27;0.50;;;27.80;55.70;;;;;;5047896;28;20048;-83
2022/09/06 12:36:16;;;;;;;0.93;0.60;;;27.90;55.90;;;;;;5057313;28;20038;-82
2022/09/06 12:39:13;;;;;;;0.82;0.43;;;27.90;55.80;;;;;;5049515;28;20059;-83
2022/09/06 12:41:46;;;;;;;1.50;0.50;;;27.80;56.00;;;;;;5059794;28;20574;-83
2022/09/06 12:44:15;;;;;;;2.03;0.60;;;27.70;55.80;;;;;;5056804;28;20048;-84
2022/09/06 12:46:50;;;;;;;1.83;0.60;;;27.70;55.60;;;;;;5075672;28;20068;-88
2022/09/06 12:49:22;;;;;;;1.38;0.70;;;27.70;55.60;;;;;;5075300;28;20054;-85
2022/09/06 12:51:49;;;;;;;0.98;0.50;;;27.70;55.60;;;;;;5069873;28;20051;-83
2022/09/06 12:54:20;;;;;;;1.40;0.70;;;27.70;55.70;;;;;;5046820;28;20064;-82
2022/09/06 12:56:52;;;;;;;3.33;0.90;;;27.70;55.70;;;;;;5051007;28;20554;-83
2022/09/06 12:59:20;;;;;;;2.70;1.02;;;27.70;55.40;;;;;;5052350;28;20528;-82
2022/09/06 13:02:00;;;;;;;3.15;0.80;;;27.60;55.00;;;;;;5055386;28;20480;-82
2022/09/06 13:04:38;;;;;;;2.05;1.00;;;27.60;55.10;;;;;;5064958;28;20690;-82
2022/09/06 13:07:10;;;;;;;3.55;0.95;;;27.50;55.10;;;;;;5060784;28;20068;-90
2022/09/06 13:09:41;;;;;;;2.85;1.10;;;27.50;55.30;;;;;;5056361;28;20052;-83
2022/09/06 13:12:31;;;;;;;3.33;0.90;;;27.50;55.10;;;;;;5069491;28;20113;-83
2022/09/06 13:15:16;;;;;;;1.25;0.75;;;27.60;55.10;;;;;;5050455;28;20040;-83
2022/09/06 13:17:44;;;;;;;1.25;0.60;;;27.50;55.30;;;;;;5063552;28;20484;-83
2022/09/06 13:20:23;;;;;;;2.50;0.80;;;27.50;55.60;;;;;;5056244;28;20116;-82